Time;durP1;ratioP1;P1;durP2;ratioP2;P2;SDS_P1;SDS_P2;PMS_P1;PMS_P2;Temp;Humidity;BMP_temperature;BMP_pressure;BME280_temperature;BME280_humidity;BME280_pressure;Samples;Min_cycle;Max_cycle;Signal;HPM_P1;HPM_P2
2022/10/17 00:00:19;;;;;;;0.23;0.23;;;;;;;;;;5055131;28;20877;-69
2022/10/17 00:02:44;;;;;;;0.30;0.30;;;;;;;;;;5045888;28;20670;-69
2022/10/17 00:05:10;;;;;;;0.30;0.30;;;;;;;;;;5057816;28;20863;-69
2022/10/17 00:07:36;;;;;;;0.30;0.30;;;;;;;;;;5053847;28;20204;-69
2022/10/17 00:10:02;;;;;;;0.30;0.30;;;;;;;;;;5058642;28;20178;-69
2022/10/17 00:12:28;;;;;;;0.30;0.30;;;;;;;;;;5063078;28;20169;-68
2022/10/17 00:14:53;;;;;;;0.30;0.30;;;;;;;;;;5056931;28;20221;-69
2022/10/17 00:17:18;;;;;;;0.30;0.30;;;;;;;;;;5057214;28;20202;-68
2022/10/17 00:19:44;;;;;;;0.30;0.30;;;;;;;;;;5057482;28;20235;-68
2022/10/17 00:22:09;;;;;;;0.30;0.30;;;;;;;;;;5055666;28;20200;-68
2022/10/17 00:24:35;;;;;;;0.30;0.30;;;;;;;;;;5059096;28;20181;-67
2022/10/17 00:27:00;;;;;;;0.30;0.30;;;;;;;;;;5060262;28;20233;-68
2022/10/17 00:29:26;;;;;;;0.30;0.30;;;;;;;;;;5053208;28;20197;-69
2022/10/17 00:31:55;;;;;;;0.30;0.30;;;;;;;;;;5055041;28;20701;-69
2022/10/17 00:34:20;;;;;;;0.30;0.30;;;;;;;;;;5059551;28;20216;-69
2022/10/17 00:36:47;;;;;;;0.30;0.30;;;;;;;;;;5057602;28;20218;-68
2022/10/17 00:39:12;;;;;;;0.30;0.30;;;;;;;;;;5056935;28;20677;-69
2022/10/17 00:41:38;;;;;;;0.30;0.30;;;;;;;;;;5055147;28;20212;-69
2022/10/17 00:44:07;;;;;;;0.30;0.30;;;;;;;;;;5058024;28;20197;-69
2022/10/17 00:46:37;;;;;;;0.20;0.20;;;;;;;;;;5051461;28;20197;-68
2022/10/17 00:49:06;;;;;;;0.30;0.30;;;;;;;;;;5033106;28;20201;-69
2022/10/17 00:51:38;;;;;;;0.30;0.30;;;;;;;;;;5038319;28;20189;-69
2022/10/17 00:54:05;;;;;;;0.30;0.30;;;;;;;;;;5038483;28;20177;-69
2022/10/17 00:56:31;;;;;;;0.30;0.30;;;;;;;;;;5058273;28;20189;-68
2022/10/17 00:58:56;;;;;;;0.25;0.25;;;;;;;;;;5042742;28;20572;-69
2022/10/17 01:01:22;;;;;;;0.30;0.30;;;;;;;;;;5042813;28;20173;-69
2022/10/17 01:03:47;;;;;;;0.30;0.30;;;;;;;;;;5054634;28;20265;-68
2022/10/17 01:06:12;;;;;;;0.30;0.30;;;;;;;;;;5056799;28;20178;-69
2022/10/17 01:08:38;;;;;;;0.30;0.30;;;;;;;;;;5055524;28;20209;-68
2022/10/17 01:11:29;;;;;;;0.30;0.30;;;;;;;;;;5043396;28;20184;-69
2022/10/17 01:14:05;;;;;;;0.30;0.30;;;;;;;;;;5060240;28;20221;-69
2022/10/17 01:16:36;;;;;;;0.30;0.30;;;;;;;;;;5038087;28;20235;-68
2022/10/17 01:19:11;;;;;;;0.30;0.30;;;;;;;;;;5061374;28;20234;-68
2022/10/17 01:21:46;;;;;;;0.30;0.30;;;;;;;;;;5057980;28;20560;-68
2022/10/17 01:24:52;;;;;;;0.30;0.30;;;;;;;;;;5058395;28;20184;-68
2022/10/17 01:27:35;;;;;;;0.30;0.30;;;;;;;;;;5047366;28;20201;-69
2022/10/17 01:30:27;;;;;;;0.30;0.30;;;;;;;;;;5057735;28;20263;-70
2022/10/17 01:33:07;;;;;;;0.30;0.30;;;;;;;;;;5062288;28;20635;-69
2022/10/17 01:35:49;;;;;;;0.30;0.30;;;;;;;;;;5054682;28;20170;-69
2022/10/17 01:38:35;;;;;;;0.30;0.30;;;;;;;;;;5056728;28;20198;-69
2022/10/17 01:41:08;;;;;;;0.30;0.30;;;;;;;;;;5059197;28;20178;-69
2022/10/17 01:43:40;;;;;;;0.30;0.30;;;;;;;;;;5062176;28;20176;-71
2022/10/17 01:46:27;;;;;;;0.30;0.30;;;;;;;;;;5048653;28;20684;-70
2022/10/17 01:48:56;;;;;;;0.30;0.30;;;;;;;;;;5058489;28;20231;-70
2022/10/17 01:51:29;;;;;;;0.30;0.30;;;;;;;;;;5056200;28;20181;-69
2022/10/17 01:54:07;;;;;;;0.30;0.30;;;;;;;;;;5057808;28;20185;-69
2022/10/17 01:56:34;;;;;;;0.30;0.30;;;;;;;;;;5054507;28;20169;-69
2022/10/17 01:59:05;;;;;;;0.30;0.30;;;;;;;;;;5061489;28;20204;-69
2022/10/17 02:01:32;;;;;;;0.30;0.30;;;;;;;;;;5053070;28;20210;-70
2022/10/17 02:04:00;;;;;;;0.30;0.30;;;;;;;;;;5056322;28;20251;-70
2022/10/17 02:06:25;;;;;;;0.30;0.30;;;;;;;;;;5060626;28;20200;-70
2022/10/17 02:08:50;;;;;;;0.30;0.30;;;;;;;;;;5059743;28;20205;-70
2022/10/17 02:11:20;;;;;;;0.30;0.30;;;;;;;;;;5033981;28;20184;-69
2022/10/17 02:13:54;;;;;;;0.30;0.30;;;;;;;;;;5061111;28;20349;-69
2022/10/17 02:16:51;;;;;;;0.30;0.30;;;;;;;;;;5054649;28;20173;-69
2022/10/17 02:19:44;;;;;;;0.30;0.30;;;;;;;;;;5060833;28;20198;-69
2022/10/17 02:22:15;;;;;;;0.30;0.30;;;;;;;;;;5054208;28;20224;-69
2022/10/17 02:25:27;;;;;;;0.30;0.30;;;;;;;;;;5056149;28;20182;-69
2022/10/17 02:28:14;;;;;;;0.30;0.30;;;;;;;;;;5037095;28;20694;-69
2022/10/17 02:30:50;;;;;;;0.30;0.30;;;;;;;;;;5064341;28;20178;-68
2022/10/17 02:33:17;;;;;;;0.30;0.30;;;;;;;;;;5053868;28;20169;-68
2022/10/17 02:35:48;;;;;;;0.30;0.30;;;;;;;;;;5059092;28;20184;-71
2022/10/17 02:38:15;;;;;;;0.30;0.30;;;;;;;;;;5059768;28;20198;-71
2022/10/17 02:40:42;;;;;;;0.30;0.30;;;;;;;;;;5042621;28;20178;-72
2022/10/17 02:43:08;;;;;;;0.30;0.30;;;;;;;;;;5065218;28;20177;-67
2022/10/17 02:45:35;;;;;;;0.30;0.30;;;;;;;;;;5062658;28;20687;-68
2022/10/17 02:48:21;;;;;;;0.30;0.30;;;;;;;;;;5060369;28;20209;-71
2022/10/17 02:51:06;;;;;;;0.20;0.20;;;;;;;;;;5065086;28;20231;-67
2022/10/17 02:53:36;;;;;;;0.50;0.50;;;;;;;;;;5039907;28;20224;-67
2022/10/17 02:56:07;;;;;;;0.30;0.30;;;;;;;;;;5040218;28;20208;-68
2022/10/17 02:58:34;;;;;;;0.30;0.30;;;;;;;;;;5057916;28;20204;-70
2022/10/17 03:00:59;;;;;;;0.30;0.30;;;;;;;;;;5057541;28;20178;-68
2022/10/17 03:03:28;;;;;;;0.30;0.30;;;;;;;;;;5048770;28;20174;-71
2022/10/17 03:05:53;;;;;;;0.30;0.30;;;;;;;;;;5042594;28;20174;-70
2022/10/17 03:08:19;;;;;;;0.30;0.30;;;;;;;;;;5057285;28;20209;-68
2022/10/17 03:10:44;;;;;;;0.30;0.30;;;;;;;;;;5058216;28;20184;-67
2022/10/17 03:13:10;;;;;;;0.30;0.30;;;;;;;;;;5055677;28;20200;-68
2022/10/17 03:15:36;;;;;;;0.30;0.30;;;;;;;;;;5057522;28;20178;-71
2022/10/17 03:18:01;;;;;;;0.30;0.30;;;;;;;;;;5058257;28;20239;-67
2022/10/17 03:20:27;;;;;;;0.30;0.30;;;;;;;;;;5057580;28;20257;-67
2022/10/17 03:22:52;;;;;;;0.30;0.30;;;;;;;;;;5054656;28;20553;-68
2022/10/17 03:25:17;;;;;;;0.33;0.33;;;;;;;;;;5051396;28;20182;-67
2022/10/17 03:27:43;;;;;;;0.30;0.30;;;;;;;;;;5051995;28;20281;-67
2022/10/17 03:30:08;;;;;;;0.30;0.30;;;;;;;;;;5056093;28;20196;-70
2022/10/17 03:32:34;;;;;;;0.35;0.35;;;;;;;;;;5057099;28;20764;-67
2022/10/17 03:34:59;;;;;;;0.30;0.30;;;;;;;;;;5054705;28;20314;-67
2022/10/17 03:37:25;;;;;;;0.30;0.30;;;;;;;;;;5057176;28;20564;-67
2022/10/17 03:39:50;;;;;;;0.30;0.30;;;;;;;;;;5060614;28;20346;-67
2022/10/17 03:42:16;;;;;;;0.30;0.30;;;;;;;;;;5052317;28;20181;-67
2022/10/17 03:44:41;;;;;;;0.30;0.30;;;;;;;;;;5061293;28;20562;-70
2022/10/17 03:47:06;;;;;;;0.30;0.30;;;;;;;;;;5056969;28;20237;-67
2022/10/17 03:49:32;;;;;;;0.30;0.30;;;;;;;;;;5054613;28;20178;-67
2022/10/17 03:51:57;;;;;;;0.30;0.30;;;;;;;;;;5053302;28;20313;-69
2022/10/17 03:54:22;;;;;;;0.30;0.30;;;;;;;;;;5054096;28;20185;-68
2022/10/17 03:56:48;;;;;;;0.22;0.22;;;;;;;;;;5058867;28;20173;-67
2022/10/17 03:59:14;;;;;;;0.30;0.30;;;;;;;;;;5056963;28;20658;-68
2022/10/17 04:01:40;;;;;;;0.30;0.30;;;;;;;;;;5054652;28;20662;-68
2022/10/17 04:04:05;;;;;;;0.30;0.30;;;;;;;;;;5060005;28;20178;-72
2022/10/17 04:06:31;;;;;;;0.30;0.30;;;;;;;;;;5049499;28;20270;-67
2022/10/17 04:08:56;;;;;;;0.30;0.30;;;;;;;;;;5053243;28;20193;-68
2022/10/17 04:11:22;;;;;;;0.30;0.30;;;;;;;;;;5042498;28;20173;-69
2022/10/17 04:13:53;;;;;;;0.30;0.30;;;;;;;;;;5058493;28;20182;-67
2022/10/17 04:16:18;;;;;;;0.30;0.30;;;;;;;;;;5058638;28;20220;-70
2022/10/17 04:18:43;;;;;;;0.30;0.30;;;;;;;;;;5057248;28;20217;-69
2022/10/17 04:21:10;;;;;;;0.30;0.30;;;;;;;;;;5056641;28;20686;-67
2022/10/17 04:23:35;;;;;;;0.30;0.30;;;;;;;;;;5041201;28;20173;-67
2022/10/17 04:26:02;;;;;;;0.30;0.30;;;;;;;;;;5054579;28;20178;-69
2022/10/17 04:28:28;;;;;;;0.23;0.23;;;;;;;;;;5056560;28;20206;-67
2022/10/17 04:31:01;;;;;;;0.30;0.30;;;;;;;;;;5048975;28;20586;-71
2022/10/17 04:33:27;;;;;;;0.30;0.30;;;;;;;;;;5058365;28;20260;-66
2022/10/17 04:36:05;;;;;;;0.30;0.30;;;;;;;;;;5051074;28;20269;-70
2022/10/17 04:38:31;;;;;;;0.30;0.30;;;;;;;;;;5047587;28;20610;-67
2022/10/17 04:40:58;;;;;;;0.30;0.30;;;;;;;;;;5056913;28;20186;-70
2022/10/17 04:43:24;;;;;;;0.30;0.30;;;;;;;;;;5041296;28;20177;-67
2022/10/17 04:45:49;;;;;;;0.30;0.30;;;;;;;;;;5052651;28;20690;-70
2022/10/17 04:48:15;;;;;;;0.30;0.30;;;;;;;;;;5041848;28;20193;-69
2022/10/17 04:50:40;;;;;;;0.30;0.30;;;;;;;;;;5054708;28;20225;-68
2022/10/17 04:53:05;;;;;;;0.30;0.30;;;;;;;;;;5030405;28;20178;-69
2022/10/17 04:55:36;;;;;;;0.30;0.30;;;;;;;;;;5059242;28;20181;-68
2022/10/17 04:58:02;;;;;;;0.30;0.30;;;;;;;;;;5031933;28;20229;-68
2022/10/17 05:00:27;;;;;;;0.30;0.30;;;;;;;;;;5059596;28;20725;-67
2022/10/17 05:02:53;;;;;;;0.30;0.30;;;;;;;;;;5037714;28;20275;-68
2022/10/17 05:05:18;;;;;;;0.30;0.30;;;;;;;;;;5040886;28;20212;-70
2022/10/17 05:07:43;;;;;;;0.30;0.30;;;;;;;;;;5051266;28;20206;-69
2022/10/17 05:10:09;;;;;;;0.30;0.30;;;;;;;;;;5040525;28;20196;-69
2022/10/17 05:12:34;;;;;;;0.30;0.30;;;;;;;;;;5051647;28;20184;-67
2022/10/17 05:14:59;;;;;;;0.30;0.30;;;;;;;;;;5053838;28;20602;-69
2022/10/17 05:17:25;;;;;;;0.27;0.27;;;;;;;;;;5053504;28;20289;-74
2022/10/17 05:19:50;;;;;;;0.30;0.30;;;;;;;;;;5046229;28;20189;-74
2022/10/17 05:22:16;;;;;;;0.30;0.30;;;;;;;;;;5052043;28;20340;-73
2022/10/17 05:24:41;;;;;;;0.30;0.30;;;;;;;;;;5058639;28;20178;-75
2022/10/17 05:27:06;;;;;;;0.30;0.30;;;;;;;;;;5055658;28;20220;-74
2022/10/17 05:29:33;;;;;;;0.30;0.30;;;;;;;;;;5039708;28;20181;-74
2022/10/17 05:31:59;;;;;;;0.30;0.30;;;;;;;;;;5043344;28;20212;-73
2022/10/17 05:34:24;;;;;;;0.30;0.30;;;;;;;;;;5055221;28;20552;-74
2022/10/17 05:36:49;;;;;;;0.30;0.30;;;;;;;;;;5057338;28;20315;-74
2022/10/17 05:39:18;;;;;;;0.30;0.30;;;;;;;;;;5053406;28;20189;-73
2022/10/17 05:41:44;;;;;;;0.30;0.30;;;;;;;;;;5056541;28;20181;-73
2022/10/17 05:44:09;;;;;;;0.30;0.30;;;;;;;;;;5037200;28;20250;-73
2022/10/17 05:46:35;;;;;;;0.30;0.30;;;;;;;;;;5035852;28;20195;-74
2022/10/17 05:49:00;;;;;;;0.30;0.30;;;;;;;;;;5055843;28;20706;-74
2022/10/17 05:51:25;;;;;;;0.30;0.30;;;;;;;;;;5055781;28;20722;-73
2022/10/17 05:53:51;;;;;;;0.30;0.30;;;;;;;;;;5055516;28;20709;-73
2022/10/17 05:56:16;;;;;;;0.30;0.30;;;;;;;;;;5057888;28;20595;-73
2022/10/17 05:58:44;;;;;;;0.30;0.30;;;;;;;;;;5036416;28;20405;-75
2022/10/17 06:01:11;;;;;;;0.30;0.30;;;;;;;;;;5063071;28;20610;-75
2022/10/17 06:03:36;;;;;;;0.30;0.30;;;;;;;;;;5059858;28;20269;-73
2022/10/17 06:06:07;;;;;;;0.30;0.30;;;;;;;;;;5048963;28;20280;-73
2022/10/17 06:08:33;;;;;;;0.30;0.30;;;;;;;;;;4957075;28;20924;-75
2022/10/17 06:10:58;;;;;;;0.30;0.30;;;;;;;;;;4880990;28;20197;-75
2022/10/17 06:13:24;;;;;;;0.30;0.30;;;;;;;;;;4887427;28;20523;-75
2022/10/17 06:15:49;;;;;;;0.30;0.30;;;;;;;;;;4883722;28;20200;-75
2022/10/17 06:18:14;;;;;;;0.30;0.30;;;;;;;;;;4869174;28;21278;-76
2022/10/17 06:20:40;;;;;;;0.30;0.30;;;;;;;;;;4858293;28;21109;-75
2022/10/17 06:23:05;;;;;;;0.30;0.30;;;;;;;;;;4860884;28;20296;-73
2022/10/17 06:25:31;;;;;;;0.30;0.30;;;;;;;;;;4926249;28;20200;-70
2022/10/17 06:27:57;;;;;;;0.30;0.30;;;;;;;;;;4985415;28;20436;-70
2022/10/17 06:30:22;;;;;;;0.30;0.30;;;;;;;;;;4935272;28;21068;-70
2022/10/17 06:32:48;;;;;;;0.30;0.30;;;;;;;;;;4874663;28;21043;-70
2022/10/17 06:35:13;;;;;;;0.30;0.30;;;;;;;;;;4878242;28;20242;-70
2022/10/17 06:37:38;;;;;;;0.25;0.25;;;;;;;;;;4914085;28;20933;-70
2022/10/17 06:40:06;;;;;;;0.30;0.30;;;;;;;;;;4924986;28;21983;-69
2022/10/17 06:42:32;;;;;;;0.30;0.30;;;;;;;;;;5055464;28;20525;-69
2022/10/17 06:44:57;;;;;;;0.30;0.30;;;;;;;;;;5052591;28;20267;-70
2022/10/17 06:47:23;;;;;;;0.30;0.30;;;;;;;;;;5060408;28;20966;-69
2022/10/17 06:49:48;;;;;;;1.42;1.35;;;;;;;;;;5043999;28;20631;-70
2022/10/17 06:52:15;;;;;;;0.30;0.30;;;;;;;;;;5036234;28;20197;-68
2022/10/17 06:54:41;;;;;;;0.30;0.30;;;;;;;;;;5058784;28;20178;-68
2022/10/17 06:57:07;;;;;;;0.30;0.30;;;;;;;;;;5061288;28;20620;-69
2022/10/17 06:59:32;;;;;;;0.30;0.30;;;;;;;;;;5053199;28;20319;-68
2022/10/17 07:01:59;;;;;;;0.30;0.30;;;;;;;;;;5041553;28;20178;-68
2022/10/17 07:04:26;;;;;;;0.30;0.30;;;;;;;;;;5037545;28;20273;-70
2022/10/17 07:06:51;;;;;;;0.30;0.30;;;;;;;;;;5049219;28;20342;-68
2022/10/17 07:09:16;;;;;;;0.30;0.30;;;;;;;;;;5055794;28;20294;-67
2022/10/17 07:11:42;;;;;;;0.30;0.30;;;;;;;;;;5046437;28;20169;-68
2022/10/17 07:14:07;;;;;;;0.30;0.30;;;;;;;;;;5053168;28;20185;-69
2022/10/17 07:16:33;;;;;;;0.30;0.30;;;;;;;;;;5044245;28;20714;-69
2022/10/17 07:18:58;;;;;;;0.30;0.30;;;;;;;;;;5058937;28;20236;-69
2022/10/17 07:21:24;;;;;;;0.30;0.30;;;;;;;;;;5052814;28;20208;-69
2022/10/17 07:23:49;;;;;;;0.30;0.30;;;;;;;;;;5041792;28;20185;-68
2022/10/17 07:26:16;;;;;;;0.30;0.30;;;;;;;;;;5035090;28;20182;-68
2022/10/17 07:28:43;;;;;;;0.30;0.30;;;;;;;;;;5036717;28;20487;-69
2022/10/17 07:31:16;;;;;;;0.30;0.30;;;;;;;;;;5060630;28;20197;-68
2022/10/17 07:33:42;;;;;;;0.30;0.30;;;;;;;;;;5055899;28;20177;-69
2022/10/17 07:36:08;;;;;;;0.30;0.30;;;;;;;;;;5051685;28;20185;-68
2022/10/17 07:38:35;;;;;;;0.30;0.30;;;;;;;;;;5052239;28;20198;-69
2022/10/17 07:41:02;;;;;;;0.30;0.30;;;;;;;;;;5054386;28;20235;-68
2022/10/17 07:43:28;;;;;;;0.30;0.30;;;;;;;;;;5042419;28;20211;-69
2022/10/17 07:45:54;;;;;;;0.30;0.30;;;;;;;;;;5049277;28;20560;-68
2022/10/17 07:48:21;;;;;;;0.30;0.30;;;;;;;;;;5055563;28;20217;-68
2022/10/17 07:50:46;;;;;;;0.30;0.30;;;;;;;;;;5034761;28;20192;-68
2022/10/17 07:53:12;;;;;;;0.60;0.60;;;;;;;;;;5033738;28;20584;-68
2022/10/17 07:55:39;;;;;;;0.30;0.30;;;;;;;;;;5050640;28;20185;-69
2022/10/17 07:58:05;;;;;;;0.30;0.30;;;;;;;;;;5055318;28;20622;-69
2022/10/17 08:00:30;;;;;;;0.30;0.30;;;;;;;;;;5049492;28;20654;-69
2022/10/17 08:02:56;;;;;;;0.40;0.40;;;;;;;;;;5032698;28;20186;-68
2022/10/17 08:05:21;;;;;;;0.30;0.30;;;;;;;;;;5053223;28;20239;-68
2022/10/17 08:07:46;;;;;;;0.30;0.30;;;;;;;;;;5054979;28;20309;-70
2022/10/17 08:10:14;;;;;;;0.30;0.30;;;;;;;;;;5053470;28;20254;-68
2022/10/17 08:12:39;;;;;;;0.30;0.30;;;;;;;;;;5041863;28;20186;-69
2022/10/17 08:15:06;;;;;;;0.30;0.30;;;;;;;;;;5054590;28;20716;-70
2022/10/17 08:17:34;;;;;;;0.30;0.30;;;;;;;;;;5034277;28;20571;-69
2022/10/17 08:19:59;;;;;;;0.30;0.30;;;;;;;;;;5041015;28;20268;-69
2022/10/17 08:22:24;;;;;;;0.30;0.30;;;;;;;;;;5046297;28;20277;-70
2022/10/17 08:24:50;;;;;;;0.30;0.30;;;;;;;;;;5039099;28;20216;-69
2022/10/17 08:27:20;;;;;;;0.30;0.30;;;;;;;;;;5047209;28;20219;-68
2022/10/17 08:29:47;;;;;;;0.30;0.30;;;;;;;;;;5057810;28;20256;-69
2022/10/17 08:32:13;;;;;;;0.30;0.30;;;;;;;;;;5043436;28;20210;-70
2022/10/17 08:34:38;;;;;;;0.75;0.75;;;;;;;;;;5060448;28;20217;-68
2022/10/17 08:37:04;;;;;;;0.30;0.30;;;;;;;;;;5050301;28;20269;-68
2022/10/17 08:39:29;;;;;;;0.57;0.57;;;;;;;;;;5050031;28;20236;-69
2022/10/17 08:42:07;;;;;;;0.30;0.30;;;;;;;;;;5044454;28;20775;-69
2022/10/17 08:44:50;;;;;;;0.30;0.30;;;;;;;;;;5053314;28;20263;-69
2022/10/17 08:47:25;;;;;;;0.30;0.30;;;;;;;;;;5039156;28;20271;-69
2022/10/17 08:49:54;;;;;;;0.30;0.30;;;;;;;;;;5044908;28;20180;-69
2022/10/17 08:52:37;;;;;;;0.30;0.30;;;;;;;;;;5051022;28;20182;-68
2022/10/17 08:55:08;;;;;;;0.40;0.40;;;;;;;;;;5043616;28;20349;-67
2022/10/17 08:57:33;;;;;;;0.30;0.30;;;;;;;;;;5033517;28;20208;-68
2022/10/17 08:59:59;;;;;;;0.43;0.43;;;;;;;;;;5049913;28;20181;-70
2022/10/17 09:02:41;;;;;;;0.40;0.40;;;;;;;;;;5047491;28;20643;-70
2022/10/17 09:05:12;;;;;;;0.40;0.40;;;;;;;;;;5046886;28;20546;-69
2022/10/17 09:08:00;;;;;;;0.40;0.40;;;;;;;;;;5045496;28;20206;-69
2022/10/17 09:10:49;;;;;;;0.38;0.38;;;;;;;;;;5052530;28;20174;-69
2022/10/17 09:13:25;;;;;;;0.40;0.40;;;;;;;;;;5045512;28;20175;-69
2022/10/17 09:16:06;;;;;;;0.32;0.32;;;;;;;;;;5050009;28;20221;-69
2022/10/17 09:18:42;;;;;;;0.30;0.30;;;;;;;;;;5051011;28;20292;-69
2022/10/17 09:21:22;;;;;;;0.40;0.40;;;;;;;;;;5034579;28;20181;-69
2022/10/17 09:23:56;;;;;;;0.38;0.38;;;;;;;;;;5043442;28;20185;-70
2022/10/17 09:26:24;;;;;;;0.32;0.32;;;;;;;;;;5028424;28;20187;-69
2022/10/17 09:28:58;;;;;;;0.32;0.32;;;;;;;;;;5054032;28;20223;-70
2022/10/17 09:31:39;;;;;;;0.40;0.40;;;;;;;;;;5050015;28;20181;-69
2022/10/17 09:34:09;;;;;;;0.40;0.40;;;;;;;;;;5031560;28;20233;-69
2022/10/17 09:36:39;;;;;;;0.73;0.73;;;;;;;;;;5040514;28;20228;-69
2022/10/17 09:39:13;;;;;;;0.38;0.38;;;;;;;;;;5052655;28;20197;-69
2022/10/17 09:41:43;;;;;;;0.40;0.40;;;;;;;;;;5059625;28;20186;-70
2022/10/17 09:44:22;;;;;;;0.30;0.30;;;;;;;;;;5047349;28;20192;-70
2022/10/17 09:47:21;;;;;;;0.50;0.50;;;;;;;;;;5049913;28;20188;-69
2022/10/17 09:49:48;;;;;;;0.40;0.40;;;;;;;;;;5054164;28;20267;-69
2022/10/17 09:52:27;;;;;;;0.40;0.40;;;;;;;;;;5049757;28;20261;-69
2022/10/17 09:55:01;;;;;;;0.38;0.38;;;;;;;;;;5058872;28;20646;-69
2022/10/17 09:57:27;;;;;;;0.40;0.40;;;;;;;;;;5052787;28;20195;-69
2022/10/17 09:59:57;;;;;;;0.32;0.32;;;;;;;;;;5050230;28;20545;-69
2022/10/17 10:02:24;;;;;;;0.73;0.73;;;;;;;;;;5055739;28;20677;-69
2022/10/17 10:05:15;;;;;;;0.30;0.30;;;;;;;;;;5051866;28;20185;-69
2022/10/17 10:07:40;;;;;;;0.40;0.40;;;;;;;;;;5048783;28;20201;-69
2022/10/17 10:10:23;;;;;;;0.38;0.38;;;;;;;;;;5037761;28;20185;-69
2022/10/17 10:13:15;;;;;;;0.40;0.40;;;;;;;;;;5047799;28;20194;-69
2022/10/17 10:15:43;;;;;;;0.30;0.30;;;;;;;;;;5050385;28;20244;-69
2022/10/17 10:18:30;;;;;;;0.45;0.45;;;;;;;;;;5037877;28;20294;-70
2022/10/17 10:21:08;;;;;;;0.40;0.40;;;;;;;;;;5050521;28;20178;-69
2022/10/17 10:23:39;;;;;;;0.40;0.40;;;;;;;;;;5051628;28;20545;-69
2022/10/17 10:26:16;;;;;;;0.40;0.40;;;;;;;;;;5051427;28;20185;-69
2022/10/17 10:29:09;;;;;;;0.40;0.40;;;;;;;;;;5053260;28;20213;-70
2022/10/17 10:31:38;;;;;;;0.40;0.40;;;;;;;;;;5028020;28;20186;-69
2022/10/17 10:34:19;;;;;;;0.30;0.30;;;;;;;;;;5051325;28;20651;-69
2022/10/17 10:36:46;;;;;;;0.40;0.40;;;;;;;;;;5058463;28;20185;-70
2022/10/17 10:39:28;;;;;;;0.30;0.30;;;;;;;;;;5053730;28;20398;-70
2022/10/17 10:41:54;;;;;;;0.40;0.40;;;;;;;;;;5053046;28;20182;-69
2022/10/17 10:44:24;;;;;;;0.30;0.30;;;;;;;;;;5049940;28;20240;-70
2022/10/17 10:47:27;;;;;;;0.30;0.30;;;;;;;;;;5050548;28;20502;-69
2022/10/17 10:50:25;;;;;;;0.40;0.40;;;;;;;;;;5049703;28;20177;-70
2022/10/17 10:53:16;;;;;;;0.40;0.40;;;;;;;;;;5039924;28;20178;-69
2022/10/17 10:55:49;;;;;;;0.30;0.30;;;;;;;;;;5052802;28;20695;-69
2022/10/17 10:58:35;;;;;;;0.30;0.30;;;;;;;;;;5035052;28;20888;-69
2022/10/17 11:01:05;;;;;;;0.40;0.40;;;;;;;;;;5054213;28;20185;-69
2022/10/17 11:04:00;;;;;;;0.30;0.30;;;;;;;;;;5047130;28;20182;-69
2022/10/17 11:06:29;;;;;;;0.40;0.40;;;;;;;;;;5054051;28;20232;-69
2022/10/17 11:09:26;;;;;;;0.38;0.38;;;;;;;;;;5037751;28;20232;-69
2022/10/17 11:11:59;;;;;;;0.40;0.40;;;;;;;;;;5046410;28;20194;-70
2022/10/17 11:14:41;;;;;;;0.50;0.50;;;;;;;;;;5050659;28;20554;-69
2022/10/17 11:17:31;;;;;;;0.30;0.30;;;;;;;;;;5055019;28;20170;-69
2022/10/17 11:20:05;;;;;;;0.60;0.60;;;;;;;;;;5055295;28;20657;-70
2022/10/17 11:22:36;;;;;;;0.38;0.38;;;;;;;;;;5056529;28;20201;-70
2022/10/17 11:25:10;;;;;;;0.30;0.30;;;;;;;;;;5051932;28;20186;-69
2022/10/17 11:27:35;;;;;;;0.30;0.30;;;;;;;;;;5049852;28;20633;-70
2022/10/17 11:30:02;;;;;;;0.30;0.30;;;;;;;;;;5030383;28;20182;-70
2022/10/17 11:32:36;;;;;;;17.63;10.52;;;;;;;;;;5055074;28;20177;-70
2022/10/17 11:35:31;;;;;;;0.50;0.50;;;;;;;;;;5050018;28;20193;-69
2022/10/17 11:38:04;;;;;;;2.40;1.27;;;;;;;;;;5044689;28;20251;-70
2022/10/17 11:40:33;;;;;;;0.40;0.40;;;;;;;;;;5053557;28;20263;-69
2022/10/17 11:43:00;;;;;;;0.35;0.35;;;;;;;;;;5036512;28;20583;-69
2022/10/17 11:45:32;;;;;;;0.40;0.40;;;;;;;;;;5034836;28;20261;-70
2022/10/17 11:48:03;;;;;;;0.30;0.30;;;;;;;;;;5044143;28;20285;-70
2022/10/17 11:50:39;;;;;;;0.40;0.40;;;;;;;;;;5052364;28;20273;-70
2022/10/17 11:53:18;;;;;;;0.40;0.40;;;;;;;;;;5046747;28;20368;-70
2022/10/17 11:55:45;;;;;;;0.57;0.57;;;;;;;;;;5035466;28;20181;-70
2022/10/17 11:58:29;;;;;;;0.30;0.30;;;;;;;;;;5035054;28;20567;-70
2022/10/17 12:01:16;;;;;;;0.40;0.40;;;;;;;;;;5059673;28;20683;-70
2022/10/17 12:04:21;;;;;;;0.90;0.90;;;;;;;;;;5040025;28;20181;-70
2022/10/17 12:07:19;;;;;;;0.40;0.40;;;;;;;;;;4955721;28;20200;-70
2022/10/17 12:10:14;;;;;;;0.50;0.50;;;;;;;;;;5015260;28;20194;-70
2022/10/17 12:12:39;;;;;;;0.40;0.40;;;;;;;;;;5051563;28;20188;-70
2022/10/17 12:15:24;;;;;;;0.40;0.40;;;;;;;;;;5049281;28;20193;-70
2022/10/17 12:18:02;;;;;;;0.30;0.30;;;;;;;;;;5058322;28;20390;-69
2022/10/17 12:20:33;;;;;;;0.30;0.30;;;;;;;;;;5049600;28;20185;-70
2022/10/17 12:23:11;;;;;;;0.40;0.40;;;;;;;;;;5043080;28;20200;-70
2022/10/17 12:25:54;;;;;;;0.40;0.40;;;;;;;;;;5055124;28;20419;-70
2022/10/17 12:28:39;;;;;;;0.30;0.30;;;;;;;;;;5047674;28;20292;-70
2022/10/17 12:31:24;;;;;;;0.40;0.40;;;;;;;;;;5054462;28;20639;-70
2022/10/17 12:33:55;;;;;;;0.40;0.40;;;;;;;;;;5051861;28;20227;-70
2022/10/17 12:36:20;;;;;;;0.40;0.40;;;;;;;;;;5053209;28;20229;-70
2022/10/17 12:39:13;;;;;;;0.40;0.40;;;;;;;;;;5053935;28;20981;-69
2022/10/17 12:41:38;;;;;;;0.40;0.40;;;;;;;;;;5043447;28;20178;-69
2022/10/17 12:44:12;;;;;;;0.30;0.30;;;;;;;;;;5050486;28;20480;-70
2022/10/17 12:47:04;;;;;;;0.60;0.60;;;;;;;;;;5050751;28;20192;-70
2022/10/17 12:49:41;;;;;;;0.40;0.40;;;;;;;;;;5049988;28;20638;-70
2022/10/17 12:52:33;;;;;;;0.40;0.40;;;;;;;;;;5033770;28;20192;-70
2022/10/17 12:55:01;;;;;;;0.30;0.30;;;;;;;;;;5054052;28;20229;-70
2022/10/17 12:57:45;;;;;;;0.40;0.40;;;;;;;;;;5045351;28;20204;-70
2022/10/17 13:00:19;;;;;;;0.40;0.40;;;;;;;;;;5058193;28;20665;-70
2022/10/17 13:02:46;;;;;;;0.40;0.40;;;;;;;;;;5050304;28;20186;-70
2022/10/17 13:05:27;;;;;;;5.57;4.22;;;;;;;;;;5033528;28;20946;-70
2022/10/17 13:07:54;;;;;;;0.40;0.40;;;;;;;;;;5032438;28;20205;-70
2022/10/17 13:10:23;;;;;;;0.40;0.40;;;;;;;;;;5052244;28;20174;-70
2022/10/17 13:12:50;;;;;;;0.40;0.40;;;;;;;;;;5052223;28;20285;-69
2022/10/17 13:15:18;;;;;;;0.50;0.50;;;;;;;;;;5035081;28;20189;-69
2022/10/17 13:17:44;;;;;;;0.40;0.40;;;;;;;;;;5047064;28;20324;-69
2022/10/17 13:20:22;;;;;;;0.40;0.40;;;;;;;;;;5042387;28;20730;-69
2022/10/17 13:22:47;;;;;;;0.30;0.30;;;;;;;;;;5035963;28;20193;-69
2022/10/17 13:25:16;;;;;;;0.40;0.40;;;;;;;;;;5050162;28;20186;-69
2022/10/17 13:27:42;;;;;;;7.78;3.92;;;;;;;;;;5052392;28;20242;-69
2022/10/17 13:30:32;;;;;;;0.40;0.40;;;;;;;;;;5055603;28;20212;-69
2022/10/17 13:32:58;;;;;;;0.40;0.40;;;;;;;;;;5041254;28;20268;-69
2022/10/17 13:35:35;;;;;;;0.40;0.40;;;;;;;;;;5053916;28;20181;-69
2022/10/17 13:38:03;;;;;;;0.40;0.40;;;;;;;;;;5057773;28;20229;-69
2022/10/17 13:40:30;;;;;;;0.40;0.40;;;;;;;;;;5053168;28;20181;-69
2022/10/17 13:43:00;;;;;;;0.30;0.30;;;;;;;;;;5041216;28;20280;-69
2022/10/17 13:45:35;;;;;;;0.40;0.40;;;;;;;;;;5051238;28;20227;-69
2022/10/17 13:48:15;;;;;;;0.40;0.40;;;;;;;;;;5037306;28;20208;-69
2022/10/17 13:50:41;;;;;;;0.40;0.40;;;;;;;;;;5052720;28;20252;-69
2022/10/17 13:53:25;;;;;;;0.32;0.32;;;;;;;;;;5053487;28;20205;-69
2022/10/17 13:55:53;;;;;;;0.40;0.40;;;;;;;;;;5039397;28;20177;-70
2022/10/17 13:58:18;;;;;;;0.45;0.45;;;;;;;;;;5038517;28;20212;-69
2022/10/17 14:00:44;;;;;;;0.55;0.55;;;;;;;;;;5034741;28;20643;-70
2022/10/17 14:03:10;;;;;;;0.40;0.40;;;;;;;;;;5038352;28;20584;-70
2022/10/17 14:05:58;;;;;;;0.30;0.30;;;;;;;;;;5050428;28;20186;-70
2022/10/17 14:08:24;;;;;;;0.40;0.40;;;;;;;;;;5053074;28;20273;-69
2022/10/17 14:10:50;;;;;;;0.35;0.35;;;;;;;;;;5048752;28;20440;-70
2022/10/17 14:13:22;;;;;;;0.40;0.40;;;;;;;;;;5053560;28;20217;-69
2022/10/17 14:15:48;;;;;;;0.35;0.35;;;;;;;;;;5034680;28;20181;-70
2022/10/17 14:18:20;;;;;;;0.60;0.60;;;;;;;;;;5037856;28;20203;-69
2022/10/17 14:20:47;;;;;;;0.40;0.40;;;;;;;;;;5057194;28;20658;-69
2022/10/17 14:23:45;;;;;;;0.35;0.35;;;;;;;;;;5059123;28;20197;-69
2022/10/17 14:26:20;;;;;;;0.40;0.40;;;;;;;;;;4991625;28;20189;-69
2022/10/17 14:29:06;;;;;;;0.40;0.40;;;;;;;;;;5049313;28;20216;-70
2022/10/17 14:31:34;;;;;;;0.32;0.32;;;;;;;;;;5050187;28;20649;-69
2022/10/17 14:34:01;;;;;;;0.40;0.40;;;;;;;;;;5041796;28;20178;-69
2022/10/17 14:36:32;;;;;;;0.68;0.60;;;;;;;;;;5051774;28;20185;-69
2022/10/17 14:38:58;;;;;;;0.40;0.40;;;;;;;;;;5052527;28;20205;-69
2022/10/17 14:41:27;;;;;;;0.30;0.30;;;;;;;;;;5040596;28;20204;-69
2022/10/17 14:44:02;;;;;;;0.38;0.38;;;;;;;;;;5053961;28;20209;-69
2022/10/17 14:46:28;;;;;;;0.40;0.40;;;;;;;;;;5038077;28;20259;-69
2022/10/17 14:49:04;;;;;;;0.40;0.40;;;;;;;;;;5057377;28;20236;-69
2022/10/17 14:51:29;;;;;;;0.40;0.40;;;;;;;;;;5054804;28;20398;-69
2022/10/17 14:54:17;;;;;;;0.40;0.40;;;;;;;;;;5055515;28;20201;-69
2022/10/17 14:56:49;;;;;;;0.40;0.40;;;;;;;;;;5051195;28;20173;-69
2022/10/17 14:59:16;;;;;;;0.63;0.63;;;;;;;;;;5055459;28;20914;-69
2022/10/17 15:01:42;;;;;;;0.40;0.40;;;;;;;;;;5058722;28;20654;-69
2022/10/17 15:04:09;;;;;;;0.50;0.50;;;;;;;;;;5034970;28;20184;-69
2022/10/17 15:06:35;;;;;;;0.40;0.40;;;;;;;;;;5042830;28;20606;-69